Etusivu
METAR-TAF:

METAR-TAF

Lentoasemat :

Nouakchottin kansainvälinen lentoasema

Nouakchott, Mauritania

Leveyspiiri: 18-18-36N, Pituuspiiri: 015-58-11W, korkeus merenpinnasta: 3 m

Tämänhetkinen sää

Tämä raportti tehtiin 32 minuuttia sitten, kello 19.00 UTC
Tuuli 18 kn luoteesta
Lämpötila 22°C
Kosteus 69%
Ilmanpaine 1010 hPa
Näkyvyys 10 km tai enemmän
ei pilviä alle 1500 m:ssä eikä cumulonimbus-pilviä

METAR: GQNO 201900Z 31018KT CAVOK 22/16 Q1010 NOSIG

Aika: 19:32 (19:32 UTC)

Sääennuste

Tämä raportti tehtiin 2 tuntia ja 32 minuuttia sitten, kello 17.00 UTC
Ennuste voimassa 20. päivästä klo 18 UTC - 21. päivään klo 24 UTC
Tuuli 12 kn luoteesta
Näkyvyys: 8000 m

TAF: GQNO 201700Z 2018/2124 32012KT 8000 NSC

Säähavainnot ja -ennusteet yli 4000 lentoasemalta (METAR- ja TAF-raportit).

Käytössä olevat sääasemat on merkitty karttaan keltaisilla ja punaisilla pisteillä.

Aseta hiiri pisteen päälle nähdäksesi sääaseman nimen.

Klikkaa sitten nähdäksesi säähavainnot ja -ennusteet.

Kartan vaihtaminen: klikkaa mustalla rastilla varustettuja vihreitä pisteitä, niin voit zoomata sisään; viivalla varustettua vihreää pistettä, niin voit zoomata ulos tai vihreitä nuolia, niin pääset viereisille kartoille.


METAR-TAF: